sensor_id;sensor_type;location;lat;lon;timestamp;pressure;altitude;pressure_sealevel;temperature;humidity
12073;BME280;6098;49.004;8.372;2023-01-25T00:02:50;102183.88;;;3.82;84.16
12073;BME280;6098;49.004;8.372;2023-01-25T00:17:40;102172.00;;;3.79;84.38
12073;BME280;6098;49.004;8.372;2023-01-25T00:32:32;102157.13;;;3.78;84.40
12073;BME280;6098;49.004;8.372;2023-01-25T00:47:21;102143.02;;;3.72;84.55
12073;BME280;6098;49.004;8.372;2023-01-25T01:02:10;102122.80;;;3.64;85.01
12073;BME280;6098;49.004;8.372;2023-01-25T01:17:01;102108.93;;;3.71;84.96
12073;BME280;6098;49.004;8.372;2023-01-25T01:31:51;102115.47;;;3.70;85.02
12073;BME280;6098;49.004;8.372;2023-01-25T01:46:41;102120.58;;;3.62;85.57
12073;BME280;6098;49.004;8.372;2023-01-25T02:01:31;102111.34;;;3.58;85.74
12073;BME280;6098;49.004;8.372;2023-01-25T02:16:23;102108.75;;;3.61;85.86
12073;BME280;6098;49.004;8.372;2023-01-25T02:31:12;102107.02;;;3.63;86.10
12073;BME280;6098;49.004;8.372;2023-01-25T03:01:08;102074.33;;;3.67;86.00
12073;BME280;6098;49.004;8.372;2023-01-25T03:16:04;102074.33;;;3.67;86.08
12073;BME280;6098;49.004;8.372;2023-01-25T03:30:55;102069.89;;;3.63;86.43
12073;BME280;6098;49.004;8.372;2023-01-25T03:45:50;102053.64;;;3.59;86.73
12073;BME280;6098;49.004;8.372;2023-01-25T04:00:43;102059.34;;;3.59;87.09
12073;BME280;6098;49.004;8.372;2023-01-25T04:15:30;102056.21;;;3.55;87.80
12073;BME280;6098;49.004;8.372;2023-01-25T04:30:20;102053.57;;;3.53;88.24
12073;BME280;6098;49.004;8.372;2023-01-25T04:45:11;102042.64;;;3.53;88.77
12073;BME280;6098;49.004;8.372;2023-01-25T05:00:00;102042.47;;;3.43;89.78
12073;BME280;6098;49.004;8.372;2023-01-25T05:14:50;102032.66;;;3.31;90.68
12073;BME280;6098;49.004;8.372;2023-01-25T05:29:40;102033.28;;;3.17;91.68
12073;BME280;6098;49.004;8.372;2023-01-25T05:44:29;102025.62;;;3.04;92.41
12073;BME280;6098;49.004;8.372;2023-01-25T05:59:20;102042.12;;;3.00;92.62
12073;BME280;6098;49.004;8.372;2023-01-25T06:14:10;102019.60;;;2.86;93.38
12073;BME280;6098;49.004;8.372;2023-01-25T06:29:00;101998.66;;;2.85;93.81
12073;BME280;6098;49.004;8.372;2023-01-25T06:43:51;101989.16;;;2.92;93.94
12073;BME280;6098;49.004;8.372;2023-01-25T06:58:43;102001.36;;;2.91;93.33
12073;BME280;6098;49.004;8.372;2023-01-25T07:13:32;101991.48;;;2.75;93.21
12073;BME280;6098;49.004;8.372;2023-01-25T07:28:23;101992.46;;;2.81;92.68
12073;BME280;6098;49.004;8.372;2023-01-25T07:43:13;101999.78;;;2.75;92.44
12073;BME280;6098;49.004;8.372;2023-01-25T07:58:03;101995.45;;;2.78;92.34
12073;BME280;6098;49.004;8.372;2023-01-25T08:12:53;101990.05;;;2.92;91.59
12073;BME280;6098;49.004;8.372;2023-01-25T08:27:45;101993.64;;;2.99;91.16
12073;BME280;6098;49.004;8.372;2023-01-25T08:42:35;101981.44;;;2.99;90.76
12073;BME280;6098;49.004;8.372;2023-01-25T08:57:26;101970.24;;;3.09;90.03
12073;BME280;6098;49.004;8.372;2023-01-25T09:12:17;101966.36;;;3.11;89.73
12073;BME280;6098;49.004;8.372;2023-01-25T09:27:06;101961.61;;;3.14;89.39
12073;BME280;6098;49.004;8.372;2023-01-25T10:42:18;101925.85;;;3.46;86.30
12073;BME280;6098;49.004;8.372;2023-01-25T10:57:10;101909.77;;;3.50;86.33
12073;BME280;6098;49.004;8.372;2023-01-25T11:42:29;101834.61;;;3.52;84.80
12073;BME280;6098;49.004;8.372;2023-01-25T11:57:41;101806.94;;;3.38;84.92
12073;BME280;6098;49.004;8.372;2023-01-25T12:12:38;101769.50;;;3.49;84.68
12073;BME280;6098;49.004;8.372;2023-01-25T12:43:01;101724.53;;;3.51;83.78
12073;BME280;6098;49.004;8.372;2023-01-25T13:13:17;101677.44;;;3.61;82.33
12073;BME280;6098;49.004;8.372;2023-01-25T13:28:34;101660.25;;;3.46;80.96
12073;BME280;6098;49.004;8.372;2023-01-25T13:42:43;101641.96;;;3.52;80.83
12073;BME280;6098;49.004;8.372;2023-01-25T13:57:33;101628.84;;;3.49;80.85
12073;BME280;6098;49.004;8.372;2023-01-25T14:12:37;101625.77;;;3.49;80.65
12073;BME280;6098;49.004;8.372;2023-01-25T14:27:29;101606.89;;;3.42;80.61
12073;BME280;6098;49.004;8.372;2023-01-25T14:42:20;101585.63;;;3.53;79.67
12073;BME280;6098;49.004;8.372;2023-01-25T15:12:27;101551.45;;;3.43;79.09
12073;BME280;6098;49.004;8.372;2023-01-25T15:27:20;101541.85;;;3.48;79.48
12073;BME280;6098;49.004;8.372;2023-01-25T15:42:09;101529.52;;;3.34;79.76
12073;BME280;6098;49.004;8.372;2023-01-25T15:56:59;101503.67;;;3.24;79.42
12073;BME280;6098;49.004;8.372;2023-01-25T16:11:52;101495.01;;;3.32;79.14
12073;BME280;6098;49.004;8.372;2023-01-25T16:26:44;101491.91;;;3.29;78.81
12073;BME280;6098;49.004;8.372;2023-01-25T16:41:34;101486.23;;;3.28;78.90
12073;BME280;6098;49.004;8.372;2023-01-25T16:56:35;101482.26;;;3.22;78.97
12073;BME280;6098;49.004;8.372;2023-01-25T17:11:29;101474.77;;;3.15;79.28
12073;BME280;6098;49.004;8.372;2023-01-25T17:26:18;101459.92;;;3.15;79.23
12073;BME280;6098;49.004;8.372;2023-01-25T17:41:09;101448.17;;;3.20;79.22
12073;BME280;6098;49.004;8.372;2023-01-25T17:56:02;101437.58;;;3.08;79.18
12073;BME280;6098;49.004;8.372;2023-01-25T18:10:56;101425.84;;;3.11;79.38
12073;BME280;6098;49.004;8.372;2023-01-25T18:25:43;101414.34;;;2.96;79.50
12073;BME280;6098;49.004;8.372;2023-01-25T18:40:33;101397.34;;;2.96;79.39
12073;BME280;6098;49.004;8.372;2023-01-25T18:55:24;101382.48;;;2.97;79.76
12073;BME280;6098;49.004;8.372;2023-01-25T19:10:16;101380.24;;;2.88;79.21
12073;BME280;6098;49.004;8.372;2023-01-25T19:25:05;101364.97;;;2.87;79.53
12073;BME280;6098;49.004;8.372;2023-01-25T19:39:57;101361.48;;;2.85;79.81
12073;BME280;6098;49.004;8.372;2023-01-25T19:54:46;101347.92;;;2.86;79.77
12073;BME280;6098;49.004;8.372;2023-01-25T20:09:37;101329.56;;;2.79;80.08
12073;BME280;6098;49.004;8.372;2023-01-25T20:24:27;101321.63;;;2.72;79.89
12073;BME280;6098;49.004;8.372;2023-01-25T20:39:20;101297.28;;;2.81;79.80
12073;BME280;6098;49.004;8.372;2023-01-25T20:54:12;101288.56;;;2.83;79.61
12073;BME280;6098;49.004;8.372;2023-01-25T21:09:02;101262.76;;;2.76;79.76
12073;BME280;6098;49.004;8.372;2023-01-25T21:23:52;101256.67;;;2.76;80.25
12073;BME280;6098;49.004;8.372;2023-01-25T21:38:43;101253.16;;;2.72;80.36
12073;BME280;6098;49.004;8.372;2023-01-25T21:53:32;101240.44;;;2.63;80.59
12073;BME280;6098;49.004;8.372;2023-01-25T22:08:23;101233.45;;;2.62;80.82
12073;BME280;6098;49.004;8.372;2023-01-25T22:23:13;101225.55;;;2.58;80.84
12073;BME280;6098;49.004;8.372;2023-01-25T22:38:03;101219.40;;;2.51;81.04
12073;BME280;6098;49.004;8.372;2023-01-25T22:52:55;101221.67;;;2.62;80.74
12073;BME280;6098;49.004;8.372;2023-01-25T23:07:45;101193.70;;;2.55;80.65
12073;BME280;6098;49.004;8.372;2023-01-25T23:22:36;101161.81;;;2.47;81.08
12073;BME280;6098;49.004;8.372;2023-01-25T23:37:26;101137.84;;;2.50;80.75
12073;BME280;6098;49.004;8.372;2023-01-25T23:52:17;101107.73;;;2.47;79.96
